sensor_id;sensor_type;location;lat;lon;timestamp;P1;P2;P0
80396;PMS5003;69721;55.894;-3.052;2023-06-10T00:00:06;18;17;
80396;PMS5003;69721;55.894;-3.052;2023-06-10T00:02:31;20;18;
80396;PMS5003;69721;55.894;-3.052;2023-06-10T00:04:57;22;17;
80396;PMS5003;69721;55.894;-3.052;2023-06-10T00:07:22;21;19;
80396;PMS5003;69721;55.894;-3.052;2023-06-10T00:09:47;22;17;
80396;PMS5003;69721;55.894;-3.052;2023-06-10T00:12:13;21;16;
80396;PMS5003;69721;55.894;-3.052;2023-06-10T00:14:39;20;20;
80396;PMS5003;69721;55.894;-3.052;2023-06-10T00:17:05;17;16;
80396;PMS5003;69721;55.894;-3.052;2023-06-10T00:19:29;17;16;
80396;PMS5003;69721;55.894;-3.052;2023-06-10T00:21:54;23;18;
80396;PMS5003;69721;55.894;-3.052;2023-06-10T00:24:20;23;20;
80396;PMS5003;69721;55.894;-3.052;2023-06-10T00:26:46;18;18;
80396;PMS5003;69721;55.894;-3.052;2023-06-10T00:29:11;21;20;
80396;PMS5003;69721;55.894;-3.052;2023-06-10T00:31:37;17;16;
80396;PMS5003;69721;55.894;-3.052;2023-06-10T00:34:01;18;15;
80396;PMS5003;69721;55.894;-3.052;2023-06-10T00:36:27;15;13;
80396;PMS5003;69721;55.894;-3.052;2023-06-10T00:38:52;14;13;
80396;PMS5003;69721;55.894;-3.052;2023-06-10T00:41:18;18;17;
80396;PMS5003;69721;55.894;-3.052;2023-06-10T00:43:43;17;16;
80396;PMS5003;69721;55.894;-3.052;2023-06-10T00:46:08;19;18;
80396;PMS5003;69721;55.894;-3.052;2023-06-10T00:48:33;15;14;
80396;PMS5003;69721;55.894;-3.052;2023-06-10T00:50:59;21;17;
80396;PMS5003;69721;55.894;-3.052;2023-06-10T00:53:24;18;16;
80396;PMS5003;69721;55.894;-3.052;2023-06-10T00:55:49;16;14;
80396;PMS5003;69721;55.894;-3.052;2023-06-10T00:58:14;20;19;
80396;PMS5003;69721;55.894;-3.052;2023-06-10T01:00:40;17;15;
80396;PMS5003;69721;55.894;-3.052;2023-06-10T01:03:06;17;14;
80396;PMS5003;69721;55.894;-3.052;2023-06-10T01:05:31;21;16;
80396;PMS5003;69721;55.894;-3.052;2023-06-10T01:08:00;15;13;
80396;PMS5003;69721;55.894;-3.052;2023-06-10T01:10:23;19;17;
80396;PMS5003;69721;55.894;-3.052;2023-06-10T01:12:49;17;15;
80396;PMS5003;69721;55.894;-3.052;2023-06-10T01:15:13;20;18;
80396;PMS5003;69721;55.894;-3.052;2023-06-10T01:20:05;18;15;
80396;PMS5003;69721;55.894;-3.052;2023-06-10T01:22:29;21;17;
80396;PMS5003;69721;55.894;-3.052;2023-06-10T01:24:55;19;16;
80396;PMS5003;69721;55.894;-3.052;2023-06-10T01:27:21;21;15;
80396;PMS5003;69721;55.894;-3.052;2023-06-10T01:29:48;18;16;
80396;PMS5003;69721;55.894;-3.052;2023-06-10T01:32:15;21;18;
80396;PMS5003;69721;55.894;-3.052;2023-06-10T01:34:37;17;17;
80396;PMS5003;69721;55.894;-3.052;2023-06-10T01:37:02;18;15;
80396;PMS5003;69721;55.894;-3.052;2023-06-10T01:39:28;18;16;
80396;PMS5003;69721;55.894;-3.052;2023-06-10T01:41:53;16;14;
80396;PMS5003;69721;55.894;-3.052;2023-06-10T01:44:18;18;17;
80396;PMS5003;69721;55.894;-3.052;2023-06-10T01:46:44;18;15;
80396;PMS5003;69721;55.894;-3.052;2023-06-10T01:49:09;24;20;
80396;PMS5003;69721;55.894;-3.052;2023-06-10T01:51:35;24;21;
80396;PMS5003;69721;55.894;-3.052;2023-06-10T01:54:00;32;24;
80396;PMS5003;69721;55.894;-3.052;2023-06-10T01:56:25;25;19;
80396;PMS5003;69721;55.894;-3.052;2023-06-10T01:58:50;21;15;
80396;PMS5003;69721;55.894;-3.052;2023-06-10T02:01:16;19;17;
80396;PMS5003;69721;55.894;-3.052;2023-06-10T02:03:41;23;18;
80396;PMS5003;69721;55.894;-3.052;2023-06-10T02:06:06;20;17;
80396;PMS5003;69721;55.894;-3.052;2023-06-10T02:08:31;22;18;
80396;PMS5003;69721;55.894;-3.052;2023-06-10T02:10:57;18;16;
80396;PMS5003;69721;55.894;-3.052;2023-06-10T02:13:22;19;17;
80396;PMS5003;69721;55.894;-3.052;2023-06-10T02:15:47;19;18;
80396;PMS5003;69721;55.894;-3.052;2023-06-10T02:18:13;26;24;
80396;PMS5003;69721;55.894;-3.052;2023-06-10T02:20:38;16;15;
80396;PMS5003;69721;55.894;-3.052;2023-06-10T02:23:05;18;18;
80396;PMS5003;69721;55.894;-3.052;2023-06-10T02:25:31;20;19;
80396;PMS5003;69721;55.894;-3.052;2023-06-10T02:27:56;19;18;
80396;PMS5003;69721;55.894;-3.052;2023-06-10T02:30:21;18;18;
80396;PMS5003;69721;55.894;-3.052;2023-06-10T02:32:46;18;16;
80396;PMS5003;69721;55.894;-3.052;2023-06-10T02:35:12;20;19;
80396;PMS5003;69721;55.894;-3.052;2023-06-10T02:37:37;20;19;
80396;PMS5003;69721;55.894;-3.052;2023-06-10T02:40:03;16;16;
80396;PMS5003;69721;55.894;-3.052;2023-06-10T02:42:28;15;15;
80396;PMS5003;69721;55.894;-3.052;2023-06-10T02:44:53;22;20;
80396;PMS5003;69721;55.894;-3.052;2023-06-10T02:47:18;23;20;
80396;PMS5003;69721;55.894;-3.052;2023-06-10T02:49:44;22;20;
80396;PMS5003;69721;55.894;-3.052;2023-06-10T02:52:09;18;18;
80396;PMS5003;69721;55.894;-3.052;2023-06-10T02:54:35;19;15;
80396;PMS5003;69721;55.894;-3.052;2023-06-10T02:57:00;17;17;
80396;PMS5003;69721;55.894;-3.052;2023-06-10T02:59:26;23;19;
80396;PMS5003;69721;55.894;-3.052;2023-06-10T03:01:51;25;23;
80396;PMS5003;69721;55.894;-3.052;2023-06-10T03:04:16;20;17;
80396;PMS5003;69721;55.894;-3.052;2023-06-10T03:06:42;21;21;
80396;PMS5003;69721;55.894;-3.052;2023-06-10T03:09:08;22;22;
80396;PMS5003;69721;55.894;-3.052;2023-06-10T03:11:34;23;21;
80396;PMS5003;69721;55.894;-3.052;2023-06-10T03:13:59;22;18;
80396;PMS5003;69721;55.894;-3.052;2023-06-10T03:16:26;20;18;
80396;PMS5003;69721;55.894;-3.052;2023-06-10T03:18:51;23;20;
80396;PMS5003;69721;55.894;-3.052;2023-06-10T03:21:17;22;21;
80396;PMS5003;69721;55.894;-3.052;2023-06-10T03:23:43;26;23;
80396;PMS5003;69721;55.894;-3.052;2023-06-10T03:26:08;18;18;
80396;PMS5003;69721;55.894;-3.052;2023-06-10T03:28:33;30;25;
80396;PMS5003;69721;55.894;-3.052;2023-06-10T03:30:59;25;21;
80396;PMS5003;69721;55.894;-3.052;2023-06-10T03:33:25;23;21;
80396;PMS5003;69721;55.894;-3.052;2023-06-10T03:35:50;25;22;
80396;PMS5003;69721;55.894;-3.052;2023-06-10T03:38:16;28;24;
80396;PMS5003;69721;55.894;-3.052;2023-06-10T03:40:42;27;22;
80396;PMS5003;69721;55.894;-3.052;2023-06-10T03:43:07;24;20;
80396;PMS5003;69721;55.894;-3.052;2023-06-10T03:45:33;25;25;
80396;PMS5003;69721;55.894;-3.052;2023-06-10T03:47:58;27;27;
80396;PMS5003;69721;55.894;-3.052;2023-06-10T03:50:24;27;23;
80396;PMS5003;69721;55.894;-3.052;2023-06-10T03:52:49;21;20;
80396;PMS5003;69721;55.894;-3.052;2023-06-10T03:55:15;22;21;
80396;PMS5003;69721;55.894;-3.052;2023-06-10T03:57:41;29;20;
80396;PMS5003;69721;55.894;-3.052;2023-06-10T04:00:07;21;20;
80396;PMS5003;69721;55.894;-3.052;2023-06-10T04:02:32;23;19;
80396;PMS5003;69721;55.894;-3.052;2023-06-10T04:04:58;25;21;
80396;PMS5003;69721;55.894;-3.052;2023-06-10T04:07:23;30;23;
80396;PMS5003;69721;55.894;-3.052;2023-06-10T04:09:49;15;15;
80396;PMS5003;69721;55.894;-3.052;2023-06-10T04:12:14;21;18;
80396;PMS5003;69721;55.894;-3.052;2023-06-10T04:14:40;25;19;
80396;PMS5003;69721;55.894;-3.052;2023-06-10T04:17:05;23;22;
80396;PMS5003;69721;55.894;-3.052;2023-06-10T04:19:30;21;21;
80396;PMS5003;69721;55.894;-3.052;2023-06-10T04:21:55;24;19;
80396;PMS5003;69721;55.894;-3.052;2023-06-10T04:24:21;23;18;
80396;PMS5003;69721;55.894;-3.052;2023-06-10T04:26:47;24;20;
80396;PMS5003;69721;55.894;-3.052;2023-06-10T04:29:12;25;24;
80396;PMS5003;69721;55.894;-3.052;2023-06-10T04:31:38;26;21;
80396;PMS5003;69721;55.894;-3.052;2023-06-10T04:34:04;20;19;
80396;PMS5003;69721;55.894;-3.052;2023-06-10T04:36:29;17;17;
80396;PMS5003;69721;55.894;-3.052;2023-06-10T04:38:55;17;15;
80396;PMS5003;69721;55.894;-3.052;2023-06-10T04:41:20;22;20;
80396;PMS5003;69721;55.894;-3.052;2023-06-10T04:43:46;24;18;
80396;PMS5003;69721;55.894;-3.052;2023-06-10T04:46:12;23;22;
80396;PMS5003;69721;55.894;-3.052;2023-06-10T04:48:38;24;22;
80396;PMS5003;69721;55.894;-3.052;2023-06-10T04:51:03;25;22;
80396;PMS5003;69721;55.894;-3.052;2023-06-10T04:53:28;17;17;
80396;PMS5003;69721;55.894;-3.052;2023-06-10T04:55:54;25;21;
80396;PMS5003;69721;55.894;-3.052;2023-06-10T04:58:19;14;14;
80396;PMS5003;69721;55.894;-3.052;2023-06-10T05:00:44;22;21;
80396;PMS5003;69721;55.894;-3.052;2023-06-10T05:03:10;18;15;
80396;PMS5003;69721;55.894;-3.052;2023-06-10T05:05:35;19;17;
80396;PMS5003;69721;55.894;-3.052;2023-06-10T05:08:01;17;16;
80396;PMS5003;69721;55.894;-3.052;2023-06-10T05:10:26;19;16;
80396;PMS5003;69721;55.894;-3.052;2023-06-10T05:12:51;22;18;
80396;PMS5003;69721;55.894;-3.052;2023-06-10T05:15:17;18;15;
80396;PMS5003;69721;55.894;-3.052;2023-06-10T05:17:42;18;17;
80396;PMS5003;69721;55.894;-3.052;2023-06-10T05:20:08;21;18;
80396;PMS5003;69721;55.894;-3.052;2023-06-10T05:22:32;20;19;
80396;PMS5003;69721;55.894;-3.052;2023-06-10T05:24:58;17;15;
80396;PMS5003;69721;55.894;-3.052;2023-06-10T05:27:23;21;17;
80396;PMS5003;69721;55.894;-3.052;2023-06-10T05:29:49;20;16;
80396;PMS5003;69721;55.894;-3.052;2023-06-10T05:32:15;14;13;
80396;PMS5003;69721;55.894;-3.052;2023-06-10T05:34:40;18;14;
80396;PMS5003;69721;55.894;-3.052;2023-06-10T05:37:06;17;14;
80396;PMS5003;69721;55.894;-3.052;2023-06-10T05:39:31;17;15;
80396;PMS5003;69721;55.894;-3.052;2023-06-10T05:41:56;15;13;
80396;PMS5003;69721;55.894;-3.052;2023-06-10T05:44:22;15;15;
80396;PMS5003;69721;55.894;-3.052;2023-06-10T05:46:47;18;17;
80396;PMS5003;69721;55.894;-3.052;2023-06-10T05:49:13;17;14;
80396;PMS5003;69721;55.894;-3.052;2023-06-10T05:51:39;18;14;
80396;PMS5003;69721;55.894;-3.052;2023-06-10T05:54:04;15;13;
80396;PMS5003;69721;55.894;-3.052;2023-06-10T05:56:29;13;13;
80396;PMS5003;69721;55.894;-3.052;2023-06-10T05:58:55;13;13;
80396;PMS5003;69721;55.894;-3.052;2023-06-10T06:01:21;18;16;
80396;PMS5003;69721;55.894;-3.052;2023-06-10T06:03:46;15;13;
80396;PMS5003;69721;55.894;-3.052;2023-06-10T06:06:12;17;15;
80396;PMS5003;69721;55.894;-3.052;2023-06-10T06:08:37;11;11;
80396;PMS5003;69721;55.894;-3.052;2023-06-10T06:11:03;15;15;
80396;PMS5003;69721;55.894;-3.052;2023-06-10T06:13:28;16;14;
80396;PMS5003;69721;55.894;-3.052;2023-06-10T06:15:54;12;11;
80396;PMS5003;69721;55.894;-3.052;2023-06-10T06:18:19;11;11;
80396;PMS5003;69721;55.894;-3.052;2023-06-10T06:20:45;13;12;
80396;PMS5003;69721;55.894;-3.052;2023-06-10T06:23:10;11;11;
80396;PMS5003;69721;55.894;-3.052;2023-06-10T06:25:36;15;14;
80396;PMS5003;69721;55.894;-3.052;2023-06-10T06:28:02;16;13;
80396;PMS5003;69721;55.894;-3.052;2023-06-10T06:30:27;15;13;
80396;PMS5003;69721;55.894;-3.052;2023-06-10T06:32:52;22;16;
80396;PMS5003;69721;55.894;-3.052;2023-06-10T06:35:18;17;16;
80396;PMS5003;69721;55.894;-3.052;2023-06-10T06:37:43;12;11;
80396;PMS5003;69721;55.894;-3.052;2023-06-10T06:40:09;14;14;
80396;PMS5003;69721;55.894;-3.052;2023-06-10T06:42:34;11;11;
80396;PMS5003;69721;55.894;-3.052;2023-06-10T06:44:59;11;11;
80396;PMS5003;69721;55.894;-3.052;2023-06-10T06:47:24;15;13;
80396;PMS5003;69721;55.894;-3.052;2023-06-10T06:49:49;15;13;
80396;PMS5003;69721;55.894;-3.052;2023-06-10T06:52:15;16;14;
80396;PMS5003;69721;55.894;-3.052;2023-06-10T06:54:42;16;14;
80396;PMS5003;69721;55.894;-3.052;2023-06-10T06:57:07;14;13;
80396;PMS5003;69721;55.894;-3.052;2023-06-10T06:59:33;13;13;
80396;PMS5003;69721;55.894;-3.052;2023-06-10T07:01:58;13;13;
80396;PMS5003;69721;55.894;-3.052;2023-06-10T07:04:24;11;11;
80396;PMS5003;69721;55.894;-3.052;2023-06-10T07:06:49;20;16;
80396;PMS5003;69721;55.894;-3.052;2023-06-10T07:09:14;15;14;
80396;PMS5003;69721;55.894;-3.052;2023-06-10T07:11:40;12;12;
80396;PMS5003;69721;55.894;-3.052;2023-06-10T07:14:05;12;11;
80396;PMS5003;69721;55.894;-3.052;2023-06-10T07:16:30;12;10;
80396;PMS5003;69721;55.894;-3.052;2023-06-10T07:18:55;14;13;
80396;PMS5003;69721;55.894;-3.052;2023-06-10T07:21:20;14;12;
80396;PMS5003;69721;55.894;-3.052;2023-06-10T07:23:46;10;10;
80396;PMS5003;69721;55.894;-3.052;2023-06-10T07:26:11;11;11;
80396;PMS5003;69721;55.894;-3.052;2023-06-10T07:28:37;10;9;
80396;PMS5003;69721;55.894;-3.052;2023-06-10T07:31:02;14;12;
80396;PMS5003;69721;55.894;-3.052;2023-06-10T07:33:28;14;14;
80396;PMS5003;69721;55.894;-3.052;2023-06-10T07:35:53;16;15;
80396;PMS5003;69721;55.894;-3.052;2023-06-10T07:38:18;13;12;
80396;PMS5003;69721;55.894;-3.052;2023-06-10T07:40:44;12;12;
80396;PMS5003;69721;55.894;-3.052;2023-06-10T07:43:09;11;10;
80396;PMS5003;69721;55.894;-3.052;2023-06-10T07:45:34;14;13;
80396;PMS5003;69721;55.894;-3.052;2023-06-10T07:48:00;13;13;
80396;PMS5003;69721;55.894;-3.052;2023-06-10T07:50:25;12;12;
80396;PMS5003;69721;55.894;-3.052;2023-06-10T07:52:50;12;11;
80396;PMS5003;69721;55.894;-3.052;2023-06-10T07:55:16;13;13;
80396;PMS5003;69721;55.894;-3.052;2023-06-10T07:57:41;13;11;
80396;PMS5003;69721;55.894;-3.052;2023-06-10T08:00:07;10;10;
80396;PMS5003;69721;55.894;-3.052;2023-06-10T08:02:32;14;13;
80396;PMS5003;69721;55.894;-3.052;2023-06-10T08:04:57;14;11;
80396;PMS5003;69721;55.894;-3.052;2023-06-10T08:07:23;12;12;
80396;PMS5003;69721;55.894;-3.052;2023-06-10T08:09:48;15;13;
80396;PMS5003;69721;55.894;-3.052;2023-06-10T08:12:14;15;15;
80396;PMS5003;69721;55.894;-3.052;2023-06-10T08:14:39;12;12;
80396;PMS5003;69721;55.894;-3.052;2023-06-10T08:17:04;15;12;
80396;PMS5003;69721;55.894;-3.052;2023-06-10T08:19:29;16;14;
80396;PMS5003;69721;55.894;-3.052;2023-06-10T08:21:55;12;12;
80396;PMS5003;69721;55.894;-3.052;2023-06-10T08:24:20;15;13;
80396;PMS5003;69721;55.894;-3.052;2023-06-10T08:26:45;10;10;
80396;PMS5003;69721;55.894;-3.052;2023-06-10T08:29:11;14;12;
80396;PMS5003;69721;55.894;-3.052;2023-06-10T08:31:36;15;12;
80396;PMS5003;69721;55.894;-3.052;2023-06-10T08:34:01;11;11;
80396;PMS5003;69721;55.894;-3.052;2023-06-10T08:36:27;16;16;
80396;PMS5003;69721;55.894;-3.052;2023-06-10T08:38:53;14;12;
80396;PMS5003;69721;55.894;-3.052;2023-06-10T08:41:19;11;11;
80396;PMS5003;69721;55.894;-3.052;2023-06-10T08:43:44;12;12;
80396;PMS5003;69721;55.894;-3.052;2023-06-10T08:46:09;12;10;
80396;PMS5003;69721;55.894;-3.052;2023-06-10T08:48:35;8;8;
80396;PMS5003;69721;55.894;-3.052;2023-06-10T08:51:00;13;10;
80396;PMS5003;69721;55.894;-3.052;2023-06-10T08:53:25;11;10;
80396;PMS5003;69721;55.894;-3.052;2023-06-10T08:55:50;12;10;
80396;PMS5003;69721;55.894;-3.052;2023-06-10T08:58:15;16;10;
80396;PMS5003;69721;55.894;-3.052;2023-06-10T09:00:41;8;8;
80396;PMS5003;69721;55.894;-3.052;2023-06-10T09:03:06;11;11;
80396;PMS5003;69721;55.894;-3.052;2023-06-10T09:05:33;13;10;
80396;PMS5003;69721;55.894;-3.052;2023-06-10T09:07:57;13;11;
80396;PMS5003;69721;55.894;-3.052;2023-06-10T09:10:22;9;9;
80396;PMS5003;69721;55.894;-3.052;2023-06-10T09:12:47;10;10;
80396;PMS5003;69721;55.894;-3.052;2023-06-10T09:15:13;13;13;
80396;PMS5003;69721;55.894;-3.052;2023-06-10T09:17:38;14;13;
80396;PMS5003;69721;55.894;-3.052;2023-06-10T09:20:04;13;12;
80396;PMS5003;69721;55.894;-3.052;2023-06-10T09:22:29;17;17;
80396;PMS5003;69721;55.894;-3.052;2023-06-10T09:27:20;17;13;
80396;PMS5003;69721;55.894;-3.052;2023-06-10T09:29:45;14;14;
80396;PMS5003;69721;55.894;-3.052;2023-06-10T09:32:10;18;16;
80396;PMS5003;69721;55.894;-3.052;2023-06-10T09:34:36;15;14;
80396;PMS5003;69721;55.894;-3.052;2023-06-10T09:37:01;16;15;
80396;PMS5003;69721;55.894;-3.052;2023-06-10T09:39:27;14;13;
80396;PMS5003;69721;55.894;-3.052;2023-06-10T09:41:52;19;16;
80396;PMS5003;69721;55.894;-3.052;2023-06-10T09:44:19;16;16;
80396;PMS5003;69721;55.894;-3.052;2023-06-10T09:46:44;17;15;
80396;PMS5003;69721;55.894;-3.052;2023-06-10T09:49:08;12;12;
80396;PMS5003;69721;55.894;-3.052;2023-06-10T09:51:33;14;14;
80396;PMS5003;69721;55.894;-3.052;2023-06-10T09:53:59;21;18;
80396;PMS5003;69721;55.894;-3.052;2023-06-10T09:58:49;17;15;
80396;PMS5003;69721;55.894;-3.052;2023-06-10T10:01:14;15;13;
80396;PMS5003;69721;55.894;-3.052;2023-06-10T10:03:45;13;13;
80396;PMS5003;69721;55.894;-3.052;2023-06-10T10:06:06;17;15;
80396;PMS5003;69721;55.894;-3.052;2023-06-10T10:08:31;20;18;
80396;PMS5003;69721;55.894;-3.052;2023-06-10T10:10:57;15;11;
80396;PMS5003;69721;55.894;-3.052;2023-06-10T10:13:22;15;14;
80396;PMS5003;69721;55.894;-3.052;2023-06-10T10:15:47;16;12;
80396;PMS5003;69721;55.894;-3.052;2023-06-10T10:18:14;13;13;
80396;PMS5003;69721;55.894;-3.052;2023-06-10T10:20:39;17;16;
80396;PMS5003;69721;55.894;-3.052;2023-06-10T10:22:58;9;9;
80396;PMS5003;69721;55.894;-3.052;2023-06-10T10:25:24;15;13;
80396;PMS5003;69721;55.894;-3.052;2023-06-10T10:27:51;10;10;
80396;PMS5003;69721;55.894;-3.052;2023-06-10T10:30:14;14;13;
80396;PMS5003;69721;55.894;-3.052;2023-06-10T10:32:42;18;17;
80396;PMS5003;69721;55.894;-3.052;2023-06-10T10:35:07;15;13;
80396;PMS5003;69721;55.894;-3.052;2023-06-10T10:37:30;14;12;
80396;PMS5003;69721;55.894;-3.052;2023-06-10T10:39:56;14;12;
80396;PMS5003;69721;55.894;-3.052;2023-06-10T10:42:21;13;13;
80396;PMS5003;69721;55.894;-3.052;2023-06-10T10:44:47;24;18;
80396;PMS5003;69721;55.894;-3.052;2023-06-10T10:47:12;12;12;
80396;PMS5003;69721;55.894;-3.052;2023-06-10T10:49:37;11;10;
80396;PMS5003;69721;55.894;-3.052;2023-06-10T10:52:03;15;11;
80396;PMS5003;69721;55.894;-3.052;2023-06-10T10:54:29;12;11;
80396;PMS5003;69721;55.894;-3.052;2023-06-10T10:59:19;12;12;
80396;PMS5003;69721;55.894;-3.052;2023-06-10T11:01:44;15;13;
80396;PMS5003;69721;55.894;-3.052;2023-06-10T11:04:09;17;14;
80396;PMS5003;69721;55.894;-3.052;2023-06-10T11:06:35;15;12;
80396;PMS5003;69721;55.894;-3.052;2023-06-10T11:09:01;15;14;
80396;PMS5003;69721;55.894;-3.052;2023-06-10T11:11:27;17;14;
80396;PMS5003;69721;55.894;-3.052;2023-06-10T11:13:58;16;13;
80396;PMS5003;69721;55.894;-3.052;2023-06-10T11:16:19;17;14;
80396;PMS5003;69721;55.894;-3.052;2023-06-10T11:18:43;12;12;
80396;PMS5003;69721;55.894;-3.052;2023-06-10T11:21:08;15;11;
80396;PMS5003;69721;55.894;-3.052;2023-06-10T11:23:37;14;14;
80396;PMS5003;69721;55.894;-3.052;2023-06-10T11:28:27;12;12;
80396;PMS5003;69721;55.894;-3.052;2023-06-10T11:30:54;15;13;
80396;PMS5003;69721;55.894;-3.052;2023-06-10T11:33:16;11;11;
80396;PMS5003;69721;55.894;-3.052;2023-06-10T11:35:40;13;13;
80396;PMS5003;69721;55.894;-3.052;2023-06-10T11:38:05;16;14;
80396;PMS5003;69721;55.894;-3.052;2023-06-10T11:40:31;13;13;
80396;PMS5003;69721;55.894;-3.052;2023-06-10T11:42:56;13;13;
80396;PMS5003;69721;55.894;-3.052;2023-06-10T11:45:21;10;10;
80396;PMS5003;69721;55.894;-3.052;2023-06-10T11:47:55;14;11;
80396;PMS5003;69721;55.894;-3.052;2023-06-10T11:50:12;12;12;
80396;PMS5003;69721;55.894;-3.052;2023-06-10T11:52:38;12;10;
80396;PMS5003;69721;55.894;-3.052;2023-06-10T11:55:03;12;11;
80396;PMS5003;69721;55.894;-3.052;2023-06-10T11:57:28;12;11;
80396;PMS5003;69721;55.894;-3.052;2023-06-10T11:59:53;14;12;
80396;PMS5003;69721;55.894;-3.052;2023-06-10T12:02:19;10;10;
80396;PMS5003;69721;55.894;-3.052;2023-06-10T12:04:44;10;9;
80396;PMS5003;69721;55.894;-3.052;2023-06-10T12:07:11;14;13;
80396;PMS5003;69721;55.894;-3.052;2023-06-10T12:09:35;11;10;
80396;PMS5003;69721;55.894;-3.052;2023-06-10T12:12:00;16;16;
80396;PMS5003;69721;55.894;-3.052;2023-06-10T12:16:50;15;13;
80396;PMS5003;69721;55.894;-3.052;2023-06-10T12:19:16;15;12;
80396;PMS5003;69721;55.894;-3.052;2023-06-10T12:21:41;18;16;
80396;PMS5003;69721;55.894;-3.052;2023-06-10T12:24:07;13;10;
80396;PMS5003;69721;55.894;-3.052;2023-06-10T12:26:38;16;12;
80396;PMS5003;69721;55.894;-3.052;2023-06-10T12:28:57;12;11;
80396;PMS5003;69721;55.894;-3.052;2023-06-10T12:31:23;13;10;
80396;PMS5003;69721;55.894;-3.052;2023-06-10T12:33:48;11;9;
80396;PMS5003;69721;55.894;-3.052;2023-06-10T12:36:15;8;7;
80396;PMS5003;69721;55.894;-3.052;2023-06-10T12:38:39;12;12;
80396;PMS5003;69721;55.894;-3.052;2023-06-10T12:41:04;8;8;
80396;PMS5003;69721;55.894;-3.052;2023-06-10T12:43:30;13;8;
80396;PMS5003;69721;55.894;-3.052;2023-06-10T12:45:55;13;10;
80396;PMS5003;69721;55.894;-3.052;2023-06-10T12:48:21;12;11;
80396;PMS5003;69721;55.894;-3.052;2023-06-10T12:50:46;9;9;
80396;PMS5003;69721;55.894;-3.052;2023-06-10T12:53:11;9;9;
80396;PMS5003;69721;55.894;-3.052;2023-06-10T12:55:37;16;14;
80396;PMS5003;69721;55.894;-3.052;2023-06-10T12:58:02;13;10;
80396;PMS5003;69721;55.894;-3.052;2023-06-10T13:00:27;11;8;
80396;PMS5003;69721;55.894;-3.052;2023-06-10T13:02:52;9;8;
80396;PMS5003;69721;55.894;-3.052;2023-06-10T13:05:17;10;10;
80396;PMS5003;69721;55.894;-3.052;2023-06-10T13:07:43;14;10;
80396;PMS5003;69721;55.894;-3.052;2023-06-10T13:10:08;12;10;
80396;PMS5003;69721;55.894;-3.052;2023-06-10T13:12:33;9;9;
80396;PMS5003;69721;55.894;-3.052;2023-06-10T13:14:59;15;15;
80396;PMS5003;69721;55.894;-3.052;2023-06-10T13:17:24;8;8;
80396;PMS5003;69721;55.894;-3.052;2023-06-10T13:19:50;11;8;
80396;PMS5003;69721;55.894;-3.052;2023-06-10T13:22:15;10;9;
80396;PMS5003;69721;55.894;-3.052;2023-06-10T13:24:40;14;11;
80396;PMS5003;69721;55.894;-3.052;2023-06-10T13:27:06;11;8;
80396;PMS5003;69721;55.894;-3.052;2023-06-10T13:29:32;17;14;
80396;PMS5003;69721;55.894;-3.052;2023-06-10T13:31:57;10;9;
80396;PMS5003;69721;55.894;-3.052;2023-06-10T13:34:22;11;10;
80396;PMS5003;69721;55.894;-3.052;2023-06-10T13:36:48;8;8;
80396;PMS5003;69721;55.894;-3.052;2023-06-10T13:39:13;12;12;
80396;PMS5003;69721;55.894;-3.052;2023-06-10T13:41:38;12;9;
80396;PMS5003;69721;55.894;-3.052;2023-06-10T13:44:03;13;10;
80396;PMS5003;69721;55.894;-3.052;2023-06-10T13:46:29;19;17;
80396;PMS5003;69721;55.894;-3.052;2023-06-10T13:48:55;18;18;
80396;PMS5003;69721;55.894;-3.052;2023-06-10T13:51:20;16;13;
80396;PMS5003;69721;55.894;-3.052;2023-06-10T13:53:45;12;9;
80396;PMS5003;69721;55.894;-3.052;2023-06-10T13:56:10;10;10;
80396;PMS5003;69721;55.894;-3.052;2023-06-10T13:58:35;16;14;
80396;PMS5003;69721;55.894;-3.052;2023-06-10T14:01:00;15;14;
80396;PMS5003;69721;55.894;-3.052;2023-06-10T14:03:26;14;11;
80396;PMS5003;69721;55.894;-3.052;2023-06-10T14:05:52;16;15;
80396;PMS5003;69721;55.894;-3.052;2023-06-10T14:08:17;12;11;
80396;PMS5003;69721;55.894;-3.052;2023-06-10T14:10:43;17;13;
80396;PMS5003;69721;55.894;-3.052;2023-06-10T14:13:09;10;10;
80396;PMS5003;69721;55.894;-3.052;2023-06-10T14:15:35;12;9;
80396;PMS5003;69721;55.894;-3.052;2023-06-10T14:18:00;14;14;
80396;PMS5003;69721;55.894;-3.052;2023-06-10T14:20:25;13;12;
80396;PMS5003;69721;55.894;-3.052;2023-06-10T14:22:51;15;14;
80396;PMS5003;69721;55.894;-3.052;2023-06-10T14:25:17;12;12;
80396;PMS5003;69721;55.894;-3.052;2023-06-10T14:27:42;12;11;
80396;PMS5003;69721;55.894;-3.052;2023-06-10T14:30:08;13;13;
80396;PMS5003;69721;55.894;-3.052;2023-06-10T14:32:33;13;12;
80396;PMS5003;69721;55.894;-3.052;2023-06-10T14:34:58;13;12;
80396;PMS5003;69721;55.894;-3.052;2023-06-10T14:37:23;14;14;
80396;PMS5003;69721;55.894;-3.052;2023-06-10T14:39:49;14;14;
80396;PMS5003;69721;55.894;-3.052;2023-06-10T14:42:14;14;13;
80396;PMS5003;69721;55.894;-3.052;2023-06-10T14:44:39;13;11;
80396;PMS5003;69721;55.894;-3.052;2023-06-10T14:47:05;12;12;
80396;PMS5003;69721;55.894;-3.052;2023-06-10T14:49:30;10;10;
80396;PMS5003;69721;55.894;-3.052;2023-06-10T14:51:55;14;13;
80396;PMS5003;69721;55.894;-3.052;2023-06-10T14:54:21;10;10;
80396;PMS5003;69721;55.894;-3.052;2023-06-10T14:56:46;9;9;
80396;PMS5003;69721;55.894;-3.052;2023-06-10T14:59:11;12;11;
80396;PMS5003;69721;55.894;-3.052;2023-06-10T15:01:37;13;13;
80396;PMS5003;69721;55.894;-3.052;2023-06-10T15:04:03;14;11;
80396;PMS5003;69721;55.894;-3.052;2023-06-10T15:06:28;18;16;
80396;PMS5003;69721;55.894;-3.052;2023-06-10T15:08:54;16;15;
80396;PMS5003;69721;55.894;-3.052;2023-06-10T15:11:19;15;13;
80396;PMS5003;69721;55.894;-3.052;2023-06-10T15:13:45;16;15;
80396;PMS5003;69721;55.894;-3.052;2023-06-10T15:16:10;41;35;
80396;PMS5003;69721;55.894;-3.052;2023-06-10T15:18:36;27;24;
80396;PMS5003;69721;55.894;-3.052;2023-06-10T15:21:02;15;15;
80396;PMS5003;69721;55.894;-3.052;2023-06-10T15:23:27;13;13;
80396;PMS5003;69721;55.894;-3.052;2023-06-10T15:25:53;14;13;
80396;PMS5003;69721;55.894;-3.052;2023-06-10T15:28:19;18;16;
80396;PMS5003;69721;55.894;-3.052;2023-06-10T15:30:45;21;19;
80396;PMS5003;69721;55.894;-3.052;2023-06-10T15:33:11;16;15;
80396;PMS5003;69721;55.894;-3.052;2023-06-10T15:35:36;17;17;
80396;PMS5003;69721;55.894;-3.052;2023-06-10T15:38:02;16;13;
80396;PMS5003;69721;55.894;-3.052;2023-06-10T15:40:28;18;17;
80396;PMS5003;69721;55.894;-3.052;2023-06-10T15:42:53;19;14;
80396;PMS5003;69721;55.894;-3.052;2023-06-10T15:45:19;17;16;
80396;PMS5003;69721;55.894;-3.052;2023-06-10T15:47:44;14;11;
80396;PMS5003;69721;55.894;-3.052;2023-06-10T15:50:09;11;11;
80396;PMS5003;69721;55.894;-3.052;2023-06-10T15:52:35;19;17;
80396;PMS5003;69721;55.894;-3.052;2023-06-10T15:55:01;17;14;
80396;PMS5003;69721;55.894;-3.052;2023-06-10T15:57:26;10;10;
80396;PMS5003;69721;55.894;-3.052;2023-06-10T15:59:51;12;12;
80396;PMS5003;69721;55.894;-3.052;2023-06-10T16:02:16;30;27;
80396;PMS5003;69721;55.894;-3.052;2023-06-10T16:04:41;17;14;